Time;durP1;ratioP1;P1;durP2;ratioP2;P2;SDS_P1;SDS_P2;PMS_P1;PMS_P2;Temp;Humidity;BMP_temperature;BMP_pressure;BME280_temperature;BME280_humidity;BME280_pressure;Samples;Min_cycle;Max_cycle;Signal;HPM_P1;HPM_P2
2021/05/18 00:01:18;;;;;;;10.50;5.83;;;;;;;12.50;64.64;99639.02;1624050;85;25876;-62
2021/05/18 00:03:46;;;;;;;16.07;6.22;;;;;;;12.49;64.81;99642.19;1614090;85;27450;-62
2021/05/18 00:06:16;;;;;;;10.95;6.28;;;;;;;12.50;64.77;99647.95;1636602;84;25823;-62
2021/05/18 00:11:46;;;;;;;9.83;5.90;;;;;;;12.44;64.99;99647.02;1613946;86;26389;-63
2021/05/18 00:14:26;;;;;;;10.30;5.45;;;;;;;12.38;65.10;99646.08;1618396;85;25734;-63
2021/05/18 00:16:57;;;;;;;11.70;6.08;;;;;;;12.36;65.19;99652.03;1616301;85;27400;-61
2021/05/18 00:19:28;;;;;;;9.35;5.53;;;;;;;12.32;65.33;99654.06;1637365;84;26243;-60
2021/05/18 00:21:59;;;;;;;10.98;5.25;;;;;;;12.31;65.50;99654.17;1681594;82;25855;-61
2021/05/18 00:24:29;;;;;;;9.58;6.22;;;;;;;12.31;65.58;99652.83;1656393;83;32434;-61
2021/05/18 00:27:03;;;;;;;13.22;6.65;;;;;;;12.31;65.59;99659.06;1652354;83;25836;-61
2021/05/18 00:29:36;;;;;;;11.65;5.70;;;;;;;12.31;65.71;99659.55;1662656;83;27583;-61
2021/05/18 00:32:06;;;;;;;15.63;7.00;;;;;;;12.31;65.71;99660.41;1668122;83;25804;-61
2021/05/18 00:34:34;;;;;;;12.68;6.30;;;;;;;12.31;65.78;99658.20;1672552;84;25868;-61
2021/05/18 00:37:03;;;;;;;13.32;6.15;;;;;;;12.31;65.84;99668.95;1664049;83;25682;-61
2021/05/18 00:39:35;;;;;;;11.85;6.83;;;;;;;12.27;65.85;99662.05;1665277;83;25619;-61
2021/05/18 00:42:14;;;;;;;10.70;6.42;;;;;;;12.25;65.92;99669.34;1661610;83;27268;-61
2021/05/18 00:44:44;;;;;;;12.00;6.15;;;;;;;12.21;65.98;99671.38;1667323;83;25686;-61
2021/05/18 00:47:17;;;;;;;9.28;6.50;;;;;;;12.17;66.10;99669.85;1663848;83;25808;-61
2021/05/18 00:49:46;;;;;;;12.47;6.78;;;;;;;12.17;66.29;99663.62;1656839;84;26212;-61
2021/05/18 00:52:17;;;;;;;14.47;7.20;;;;;;;12.18;66.30;99673.40;1676276;83;26106;-61
2021/05/18 00:54:56;;;;;;;12.25;6.70;;;;;;;12.17;66.37;99670.33;1698505;82;30485;-61
2021/05/18 01:00:13;;;;;;;10.78;7.45;;;;;;;12.16;66.54;99669.47;1643916;85;25914;-61
2021/05/18 01:02:47;;;;;;;16.07;7.10;;;;;;;12.17;66.62;99673.02;1633065;86;25810;-61
2021/05/18 01:05:20;;;;;;;12.53;6.65;;;;;;;12.17;66.69;99677.91;1680288;82;25739;-61
2021/05/18 01:07:52;;;;;;;11.53;6.72;;;;;;;12.19;66.75;99680.50;1699272;82;27874;-61
2021/05/18 01:10:24;;;;;;;9.30;6.47;;;;;;;12.20;66.85;99676.84;1674608;82;25701;-61
2021/05/18 01:12:54;;;;;;;11.95;7.08;;;;;;;12.21;66.89;99671.86;1675856;84;25596;-61
2021/05/18 01:15:24;;;;;;;16.67;7.47;;;;;;;12.21;66.87;99663.31;1666687;83;25709;-61
2021/05/18 01:17:53;;;;;;;28.62;8.20;;;;;;;12.22;67.03;99670.41;1667158;84;25783;-61
2021/05/18 01:20:23;;;;;;;19.27;7.35;;;;;;;12.24;67.03;99675.20;1644167;83;25792;-61
2021/05/18 01:22:52;;;;;;;12.20;6.72;;;;;;;12.27;67.07;99671.45;1673457;84;26131;-61
2021/05/18 01:25:22;;;;;;;18.00;8.05;;;;;;;12.28;67.03;99665.12;1676554;83;25838;-61
2021/05/18 01:27:51;;;;;;;13.62;7.83;;;;;;;12.27;67.12;99665.59;1690509;83;25742;-61
2021/05/18 01:30:22;;;;;;;12.63;7.00;;;;;;;12.29;67.29;99669.53;1685309;82;25692;-61
2021/05/18 01:32:49;;;;;;;14.45;7.20;;;;;;;12.32;67.28;99674.22;1694340;81;27267;-61
2021/05/18 01:35:21;;;;;;;14.35;7.87;;;;;;;12.34;67.24;99682.18;1695810;82;25848;-62
2021/05/18 01:37:51;;;;;;;11.50;7.42;;;;;;;12.32;67.30;99685.45;1701814;82;25942;-61
2021/05/18 01:42:53;;;;;;;13.85;7.75;;;;;;;12.29;67.47;99677.11;1708472;81;25624;-61
2021/05/18 01:45:26;;;;;;;16.02;8.35;;;;;;;12.29;67.60;99674.91;1687499;82;26137;-61
2021/05/18 01:47:59;;;;;;;14.33;7.85;;;;;;;12.29;67.66;99682.96;1647179;84;25693;-66
2021/05/18 01:50:31;;;;;;;11.38;7.17;;;;;;;12.26;67.69;99684.03;1693191;82;25785;-66
2021/05/18 01:53:00;;;;;;;11.38;7.62;;;;;;;12.24;67.68;99684.61;1686767;83;25573;-66
2021/05/18 01:55:34;;;;;;;12.68;7.47;;;;;;;12.22;67.76;99692.39;1685878;83;25692;-66
2021/05/18 01:58:13;;;;;;;20.40;8.48;;;;;;;12.19;67.76;99691.24;1681872;83;25866;-66
2021/05/18 02:00:43;;;;;;;13.48;8.58;;;;;;;12.15;67.90;99696.44;1673665;83;25800;-66
2021/05/18 02:03:12;;;;;;;17.82;9.40;;;;;;;12.11;67.89;99693.09;1680737;83;25700;-66
2021/05/18 02:05:42;;;;;;;16.70;7.78;;;;;;;12.08;68.07;99694.63;1704273;82;25919;-66
2021/05/18 02:08:14;;;;;;;16.37;8.87;;;;;;;12.03;68.02;99693.58;1710336;82;25749;-66
2021/05/18 02:10:44;;;;;;;18.48;9.90;;;;;;;12.01;68.09;99699.53;1698020;81;25721;-66
2021/05/18 02:13:14;;;;;;;15.78;10.65;;;;;;;11.97;68.25;99702.03;1673190;83;25851;-66
2021/05/18 02:15:50;;;;;;;17.05;10.88;;;;;;;11.94;68.25;99704.05;1682962;83;25738;-66
2021/05/18 02:18:46;;;;;;;20.55;10.23;;;;;;;11.88;68.33;99705.78;1682280;82;26099;-66
2021/05/18 02:26:44;;;;;;;10.58;7.35;;;;;;;11.77;68.61;99704.22;1672059;82;25801;-66
2021/05/18 02:29:13;;;;;;;9.33;6.78;;;;;;;11.75;68.69;99719.09;1683630;83;26225;-66
2021/05/18 02:31:43;;;;;;;12.20;7.30;;;;;;;11.74;68.74;99715.16;1690063;82;26123;-66
2021/05/18 02:34:13;;;;;;;18.23;8.00;;;;;;;11.71;68.81;99716.21;1673145;83;26113;-66
2021/05/18 02:36:44;;;;;;;9.93;6.53;;;;;;;11.70;68.89;99717.17;1673613;83;27789;-66
2021/05/18 02:39:14;;;;;;;11.90;6.37;;;;;;;11.68;69.03;99710.55;1629346;86;25797;-66
2021/05/18 02:41:44;;;;;;;9.80;6.85;;;;;;;11.68;69.02;99712.37;1616671;86;25636;-66
2021/05/18 02:49:33;;;;;;;12.85;7.50;;;;;;;11.66;69.30;99718.31;1556448;89;25842;-66
2021/05/18 02:52:06;;;;;;;11.48;6.87;;;;;;;11.67;69.38;99721.39;1587221;89;25867;-66
2021/05/18 02:54:35;;;;;;;13.35;7.00;;;;;;;11.66;69.34;99718.31;1589809;87;25862;-66
2021/05/18 02:57:09;;;;;;;11.38;6.70;;;;;;;11.65;69.44;99723.30;1582284;89;26004;-66
2021/05/18 02:59:37;;;;;;;15.32;6.40;;;;;;;11.65;69.44;99730.02;1674095;82;25729;-66
2021/05/18 03:02:08;;;;;;;10.35;4.92;;;;;;;11.64;69.49;99730.97;1648634;84;25867;-66
2021/05/18 03:04:37;;;;;;;9.83;4.70;;;;;;;11.64;69.55;99725.13;1625334;85;32114;-66
2021/05/18 03:07:06;;;;;;;9.50;4.12;;;;;;;11.63;69.54;99731.45;1669396;83;25766;-66
2021/05/18 03:09:36;;;;;;;6.92;4.08;;;;;;;11.64;69.56;99731.84;1666612;84;25723;-66
2021/05/18 03:12:06;;;;;;;6.37;3.70;;;;;;;11.63;69.53;99731.45;1674020;83;25760;-66
2021/05/18 03:14:35;;;;;;;6.10;3.80;;;;;;;11.60;69.62;99731.64;1677232;83;25836;-66
2021/05/18 03:17:03;;;;;;;15.65;4.20;;;;;;;11.57;69.64;99736.34;1669353;83;25869;-66
2021/05/18 03:19:33;;;;;;;14.07;3.87;;;;;;;11.51;69.61;99736.23;1663133;83;25662;-66
2021/05/18 03:22:02;;;;;;;11.35;3.75;;;;;;;11.49;69.62;99737.28;1669442;83;25782;-66
2021/05/18 03:24:31;;;;;;;11.95;3.92;;;;;;;11.48;69.62;99740.92;1664695;84;25973;-66
2021/05/18 03:27:01;;;;;;;5.17;3.35;;;;;;;11.45;69.63;99744.66;1630163;85;25822;-66
2021/05/18 03:29:33;;;;;;;7.35;3.65;;;;;;;11.46;69.70;99742.84;1635871;85;25899;-66
2021/05/18 03:34:58;;;;;;;7.03;3.20;;;;;;;11.42;69.73;99742.64;1670910;84;25704;-66
2021/05/18 03:38:16;;;;;;;6.12;3.47;;;;;;;11.43;69.75;99751.08;1705616;81;25874;-66
2021/05/18 03:40:06;;;;;;;5.00;3.62;;;;;;;11.41;69.70;99752.52;1671436;83;25975;-65
2021/05/18 03:42:40;;;;;;;8.15;4.20;;;;;;;11.39;69.71;99748.58;1682556;83;25738;-66
2021/05/18 03:45:19;;;;;;;8.53;4.08;;;;;;;11.43;69.71;99751.08;1665340;84;27274;-66
2021/05/18 03:53:39;;;;;;;8.45;3.37;;;;;;;11.56;69.66;99760.11;1691825;83;27764;-66
2021/05/18 04:04:27;;;;;;;8.15;3.15;;;;;;;11.61;69.69;99780.82;1688344;83;25810;-66
2021/05/18 04:13:04;;;;;;;;;;;;;;;;;;;;;
2021/05/18 04:18:17;;;;;;;6.92;3.42;;;;;;;11.60;69.69;99784.46;1701246;82;25626;-66
2021/05/18 04:21:13;;;;;;;5.25;2.80;;;;;;;11.61;69.77;99785.70;1677541;83;25901;-66
2021/05/18 04:23:49;;;;;;;8.00;3.17;;;;;;;11.57;69.67;99784.64;1690557;83;25805;-66
2021/05/18 04:40:52;;;;;;;6.28;2.60;;;;;;;11.67;69.82;99801.92;1664796;83;25726;-66
2021/05/18 04:48:42;;;;;;;9.68;2.80;;;;;;;11.61;69.84;99800.47;1668415;83;25728;-66
2021/05/18 04:51:24;;;;;;;6.72;3.08;;;;;;;11.62;69.81;99804.88;1659875;83;26116;-66
2021/05/18 05:02:47;;;;;;;5.37;2.90;;;;;;;11.39;69.96;99808.95;1644722;85;26843;-67
2021/05/18 05:07:51;;;;;;;5.10;2.90;;;;;;;11.30;70.10;99814.01;1642810;84;25607;-67
2021/05/18 05:10:17;;;;;;;4.25;3.22;;;;;;;11.25;70.25;99812.94;1680606;83;25682;-67
2021/05/18 05:14:07;;;;;;;5.72;3.35;;;;;;;11.23;70.36;99822.03;1668808;84;26092;-66
2021/05/18 05:15:24;;;;;;;4.75;3.05;;;;;;;11.21;70.50;99820.78;1662630;83;26188;-67
2021/05/18 05:17:54;;;;;;;7.10;3.60;;;;;;;11.19;70.63;99817.80;1680030;83;25864;-67
2021/05/18 05:20:24;;;;;;;5.17;2.95;;;;;;;11.16;70.83;99820.19;1660611;83;25676;-67
2021/05/18 05:22:53;;;;;;;5.37;3.35;;;;;;;11.18;70.98;99814.25;1684427;83;25912;-67
2021/05/18 05:25:22;;;;;;;9.95;3.33;;;;;;;11.23;71.06;99818.87;1678290;83;25810;-67
2021/05/18 05:27:51;;;;;;;5.28;3.75;;;;;;;11.29;71.17;99825.69;1688117;83;25716;-67
2021/05/18 05:30:21;;;;;;;6.08;3.37;;;;;;;11.35;71.26;99824.85;1677457;82;25894;-67
2021/05/18 05:32:50;;;;;;;5.80;3.40;;;;;;;11.43;71.33;99820.37;1672405;82;25747;-67
2021/05/18 05:35:20;;;;;;;7.67;3.85;;;;;;;11.49;71.44;99824.03;1682098;82;25767;-67
2021/05/18 05:37:51;;;;;;;8.00;4.60;;;;;;;11.56;71.55;99820.02;1682809;83;25959;-67
2021/05/18 05:40:27;;;;;;;6.47;4.08;;;;;;;11.63;71.59;99823.19;1676957;83;27876;-67
2021/05/18 05:42:58;;;;;;;6.33;3.47;;;;;;;11.69;71.66;99822.82;1701343;82;25810;-67
2021/05/18 05:45:31;;;;;;;7.50;4.12;;;;;;;11.76;71.70;99827.34;1686329;83;25707;-67
2021/05/18 05:48:03;;;;;;;7.50;3.50;;;;;;;11.81;71.76;99822.58;1682852;82;25755;-71
2021/05/18 05:50:35;;;;;;;9.23;3.70;;;;;;;11.88;71.72;99824.80;1714675;82;25719;-67
2021/05/18 05:53:04;;;;;;;9.25;3.72;;;;;;;11.91;71.81;99825.09;1690139;82;26119;-66
2021/05/18 05:55:34;;;;;;;5.83;4.22;;;;;;;11.95;71.80;99828.83;1704432;81;25843;-66
2021/05/18 05:58:04;;;;;;;6.40;4.05;;;;;;;12.05;71.85;99829.60;1677728;82;25816;-67
2021/05/18 06:00:34;;;;;;;7.55;3.65;;;;;;;12.13;71.76;99825.95;1716503;81;25696;-68
2021/05/18 06:03:05;;;;;;;10.30;4.00;;;;;;;12.18;71.72;99827.39;1702677;82;25626;-67
2021/05/18 06:05:34;;;;;;;8.00;3.37;;;;;;;12.22;71.87;99831.61;1702458;82;28051;-68
2021/05/18 06:08:04;;;;;;;9.43;3.98;;;;;;;12.25;71.93;99832.77;1701666;82;25728;-71
2021/05/18 06:10:39;;;;;;;5.85;3.62;;;;;;;12.29;71.92;99834.30;1705795;81;25911;-69
2021/05/18 06:13:41;;;;;;;12.47;5.08;;;;;;;12.39;71.95;99837.75;1679719;82;25658;-67
2021/05/18 06:36:55;;;;;;;8.05;3.98;;;;;;;12.85;71.54;99862.53;1655135;84;25697;-67
2021/05/18 06:45:50;;;;;;;11.75;3.67;;;;;;;13.13;71.41;99865.11;1683261;82;25765;-68
2021/05/18 06:49:13;;;;;;;5.17;2.90;;;;;;;13.17;71.17;99869.35;1710222;81;25872;-66
2021/05/18 06:51:44;;;;;;;19.87;4.10;;;;;;;13.22;71.01;99869.91;1702207;82;25619;-66
2021/05/18 06:54:13;;;;;;;12.58;3.10;;;;;;;13.29;70.96;99867.19;1638730;85;25824;-65
2021/05/18 06:56:44;;;;;;;10.18;3.00;;;;;;;13.37;70.81;99869.85;1629203;85;25927;-64
2021/05/18 07:01:52;;;;;;;10.63;3.33;;;;;;;13.51;70.64;99882.77;1663346;84;25852;-64
2021/05/18 07:04:21;;;;;;;4.47;2.60;;;;;;;13.57;70.46;99878.31;1643183;84;25824;-64
2021/05/18 07:07:07;;;;;;;6.05;2.80;;;;;;;13.71;70.43;99884.59;1685406;83;25685;-65
2021/05/18 07:09:31;;;;;;;6.15;2.55;;;;;;;13.80;70.17;99882.61;1663384;83;25860;-66
2021/05/18 07:12:01;;;;;;;6.65;2.45;;;;;;;13.84;70.03;99884.13;1668060;83;28140;-66
2021/05/18 07:14:30;;;;;;;4.60;2.20;;;;;;;13.83;69.53;99890.00;1670787;83;25820;-65
2021/05/18 07:16:59;;;;;;;9.90;2.33;;;;;;;13.68;69.45;99896.92;1646946;84;25668;-64
2021/05/18 07:19:29;;;;;;;5.47;2.87;;;;;;;13.77;69.57;99903.02;1664975;83;26140;-64
2021/05/18 07:21:59;;;;;;;11.73;2.85;;;;;;;13.85;69.47;99898.84;1666926;82;25738;-65
2021/05/18 07:24:31;;;;;;;7.22;3.08;;;;;;;13.79;69.10;99883.58;1694020;82;27532;-65
2021/05/18 07:27:02;;;;;;;10.98;2.62;;;;;;;13.84;69.03;99906.54;1723449;81;25647;-66
2021/05/18 07:29:32;;;;;;;9.28;2.20;;;;;;;13.84;68.90;99910.58;1698936;82;26184;-67
2021/05/18 07:32:04;;;;;;;4.83;1.80;;;;;;;13.88;68.84;99914.79;1711076;81;25672;-65
2021/05/18 07:34:35;;;;;;;;;;;;;;;13.95;68.70;99906.66;1699671;81;25662;-66
2021/05/18 07:37:05;;;;;;;;;;;;;;;14.04;68.54;99915.08;1693170;82;27331;-66
2021/05/18 07:39:35;;;;;;;6.75;2.17;;;;;;;14.04;68.30;99915.08;1678191;82;25759;-64
2021/05/18 07:42:04;;;;;;;3.15;2.20;;;;;;;14.12;68.24;99913.58;1710754;81;25706;-65
2021/05/18 07:44:35;;;;;;;13.72;2.47;;;;;;;14.28;68.12;99913.38;1675906;82;25889;-65
2021/05/18 07:47:04;;;;;;;6.40;2.05;;;;;;;14.38;67.85;99913.59;1711794;81;25616;-66
2021/05/18 07:49:42;;;;;;;15.10;2.60;;;;;;;14.38;67.60;99918.49;1683831;83;25746;-64
2021/05/18 08:00:59;;;;;;;4.00;2.10;;;;;;;14.88;67.22;99908.16;1704401;82;25770;-65
2021/05/18 08:05:52;;;;;;;8.38;2.30;;;;;;;15.02;66.38;99912.55;1683989;83;25884;-65
2021/05/18 08:08:24;;;;;;;6.17;2.20;;;;;;;15.17;66.46;99908.72;1677084;83;25895;-66
2021/05/18 08:10:59;;;;;;;11.05;2.20;;;;;;;15.37;66.33;99918.53;1676311;83;25607;-65
2021/05/18 08:13:32;;;;;;;4.22;1.40;;;;;;;15.44;65.78;99923.36;1675215;83;25742;-65
2021/05/18 08:18:58;;;;;;;1.82;1.32;;;;;;;15.29;64.84;99923.64;1678474;83;25820;-66
2021/05/18 08:21:44;;;;;;;3.72;1.82;;;;;;;15.25;64.42;99925.22;1672022;83;25796;-66
2021/05/18 10:36:14;;;;;;;6.53;1.40;;;;;;;17.30;57.67;99932.16;1692487;82;25721;-66
2021/05/18 10:38:50;;;;;;;1.60;1.20;;;;;;;17.38;57.40;99933.74;1716055;81;27794;-65
2021/05/18 10:41:27;;;;;;;9.48;1.50;;;;;;;17.38;55.56;99932.39;1713471;81;26071;-66
2021/05/18 10:44:06;;;;;;;9.58;1.57;;;;;;;17.14;56.34;99936.12;1731641;80;25842;-65
2021/05/18 10:46:57;;;;;;;3.40;1.87;;;;;;;17.15;56.44;99939.20;1690987;82;25750;-66
2021/05/18 10:49:36;;;;;;;11.55;1.85;;;;;;;17.29;56.61;99938.56;1684722;82;32631;-66
2021/05/18 10:52:12;;;;;;;7.35;1.47;;;;;;;17.42;56.31;99933.36;1653048;83;25972;-67
2021/05/18 10:54:44;;;;;;;8.13;1.32;;;;;;;17.51;56.44;99933.09;1643637;83;25792;-67
2021/05/18 10:57:22;;;;;;;3.60;1.40;;;;;;;17.62;55.73;99931.70;1623001;85;25668;-65
2021/05/18 11:00:09;;;;;;;20.25;2.20;;;;;;;17.63;56.23;99937.48;1643065;85;25633;-65
2021/05/18 11:02:41;;;;;;;7.45;2.00;;;;;;;17.69;55.47;99934.78;1670818;83;25740;-65
2021/05/18 11:05:15;;;;;;;7.20;1.90;;;;;;;17.68;55.74;99933.92;1676475;84;26577;-65
2021/05/18 11:07:49;;;;;;;9.33;2.12;;;;;;;17.70;55.55;99921.11;1645296;85;25790;-65
2021/05/18 11:10:21;;;;;;;12.35;2.25;;;;;;;17.58;55.95;99929.38;1641766;84;25614;-65
2021/05/18 11:12:52;;;;;;;3.45;2.15;;;;;;;17.56;56.26;99925.44;1663733;84;26115;-66
2021/05/18 11:15:23;;;;;;;6.22;1.80;;;;;;;17.57;56.45;99935.29;1697556;81;25814;-64
2021/05/18 11:17:53;;;;;;;15.50;2.25;;;;;;;17.63;56.71;99936.62;1685461;83;25766;-64
2021/05/18 11:23:27;;;;;;;3.00;1.30;;;;;;;17.71;56.79;99953.14;1693269;82;25730;-65
2021/05/18 11:26:12;;;;;;;7.70;1.90;;;;;;;17.48;56.44;99943.69;1681896;83;25890;-65
2021/05/18 11:28:49;;;;;;;6.50;1.62;;;;;;;17.50;56.88;99950.34;1678888;84;26011;-64
2021/05/18 11:31:26;;;;;;;2.58;1.30;;;;;;;17.63;56.64;99950.17;1665581;83;26710;-65
2021/05/18 11:34:03;;;;;;;5.10;1.87;;;;;;;17.56;56.16;99941.70;1685990;83;25860;-65
2021/05/18 11:36:40;;;;;;;4.15;0.93;;;;;;;17.53;56.37;99944.17;1695127;83;25652;-67
2021/05/18 11:39:17;;;;;;;2.50;1.25;;;;;;;17.41;55.53;99940.26;1664631;83;26205;-66
2021/05/18 11:41:52;;;;;;;2.30;0.98;;;;;;;17.40;55.79;99939.40;1661331;84;25791;-65
2021/05/18 11:44:21;;;;;;;6.65;0.98;;;;;;;17.41;55.24;99949.74;1664082;83;26324;-65
2021/05/18 11:46:56;;;;;;;15.72;1.55;;;;;;;17.33;55.08;99944.09;1669417;84;25857;-64
2021/05/18 11:49:24;;;;;;;4.35;1.00;;;;;;;17.34;54.57;99937.69;1651842;84;25696;-64
2021/05/18 11:51:57;;;;;;;4.17;0.93;;;;;;;17.33;55.31;99952.22;1670389;84;25773;-63
2021/05/18 11:54:37;;;;;;;11.25;1.07;;;;;;;17.50;55.03;99953.05;1662236;84;25835;-63
2021/05/18 11:57:06;;;;;;;13.43;1.87;;;;;;;17.56;54.35;99959.31;1709865;82;25833;-64
2021/05/18 11:59:38;;;;;;;11.20;2.20;;;;;;;17.35;54.18;99980.05;1686038;82;25838;-64
2021/05/18 12:02:07;;;;;;;19.40;2.45;;;;;;;16.90;55.08;99964.33;1703445;81;25895;-64
2021/05/18 12:04:37;;;;;;;14.23;2.17;;;;;;;16.61;56.06;99970.67;1724962;81;25737;-63
2021/05/18 12:07:13;;;;;;;6.95;1.45;;;;;;;16.55;56.60;99970.17;1704753;81;25880;-63
2021/05/18 12:09:45;;;;;;;5.03;1.15;;;;;;;16.44;57.08;99976.92;1695147;82;25700;-63
2021/05/18 12:12:15;;;;;;;10.20;1.70;;;;;;;16.23;57.42;99974.53;1708793;81;25643;-63
2021/05/18 12:14:51;;;;;;;8.10;1.02;;;;;;;16.06;57.64;99971.77;1694374;82;25647;-63
2021/05/18 12:17:31;;;;;;;6.92;1.35;;;;;;;16.06;58.08;99974.48;1718910;81;25897;-64
2021/05/18 12:20:07;;;;;;;10.38;2.72;;;;;;;15.93;58.35;99980.45;1692573;81;25672;-66
2021/05/18 12:22:47;;;;;;;4.65;1.32;;;;;;;15.79;58.68;99980.14;1679903;82;27380;-64
2021/05/18 12:25:35;;;;;;;20.82;1.80;;;;;;;15.74;58.99;99981.46;1695634;81;25594;-64
2021/05/18 12:28:11;;;;;;;6.87;1.75;;;;;;;15.73;59.10;99978.39;1694710;82;25691;-64
2021/05/18 12:30:43;;;;;;;7.65;1.42;;;;;;;15.84;58.98;99984.70;1695733;81;25686;-65
2021/05/18 12:33:12;;;;;;;15.08;2.00;;;;;;;15.79;58.96;99981.48;1671934;82;25842;-64
2021/05/18 12:35:39;;;;;;;6.67;0.93;;;;;;;15.84;58.34;99991.95;1688964;82;25738;-65
2021/05/18 12:38:16;;;;;;;17.45;1.50;;;;;;;15.60;58.24;99987.07;1699028;82;26321;-64
2021/05/18 12:40:44;;;;;;;3.92;0.80;;;;;;;15.45;58.54;99990.38;1665254;83;25813;-64
2021/05/18 12:43:24;;;;;;;2.35;0.90;;;;;;;15.61;58.47;99994.16;1680855;83;25804;-63
2021/05/18 12:46:13;;;;;;;3.85;0.70;;;;;;;15.85;58.47;99985.57;1690147;82;25808;-64
2021/05/18 12:48:47;;;;;;;5.62;1.22;;;;;;;16.07;58.21;100004.59;1694138;82;25674;-64
2021/05/18 12:51:24;;;;;;;11.88;1.25;;;;;;;16.35;58.07;99998.41;1673292;83;25747;-64
2021/05/18 12:54:05;;;;;;;8.00;1.22;;;;;;;16.53;57.43;99995.13;1666858;83;25582;-64
2021/05/18 12:56:34;;;;;;;20.08;1.27;;;;;;;16.52;57.28;100000.17;1679878;83;25715;-65
2021/05/18 12:59:08;;;;;;;9.73;1.70;;;;;;;16.91;57.63;100001.24;1684386;83;25592;-64
2021/05/18 13:01:48;;;;;;;9.88;1.12;;;;;;;17.27;56.88;100007.76;1659581;84;27291;-64
2021/05/18 13:04:19;;;;;;;5.17;1.17;;;;;;;17.42;56.07;100000.23;1681977;83;25831;-65
2021/05/18 13:06:50;;;;;;;2.70;0.68;;;;;;;17.60;55.77;100004.14;1690570;83;25666;-64
2021/05/18 13:09:26;;;;;;;2.42;0.93;;;;;;;18.04;56.10;100010.44;1677283;82;25864;-64
2021/05/18 13:12:15;;;;;;;2.17;0.72;;;;;;;18.58;55.71;100003.47;1710487;82;25763;-65
2021/05/18 13:15:17;;;;;;;2.02;0.75;;;;;;;18.81;54.01;99999.64;1675523;83;25678;-66
2021/05/18 13:18:00;;;;;;;5.60;1.00;;;;;;;18.84;54.03;99999.88;1708150;82;25640;-65
2021/05/18 13:20:55;;;;;;;1.52;0.78;;;;;;;18.97;52.05;99997.80;1673766;83;26242;-64
2021/05/18 13:23:33;;;;;;;6.55;0.60;;;;;;;18.84;52.20;100000.37;1669083;83;25749;-65
2021/05/18 13:29:15;;;;;;;7.22;0.90;;;;;;;18.45;51.02;100004.16;1704815;82;25770;-65
2021/05/18 13:31:46;;;;;;;3.12;0.70;;;;;;;18.59;51.48;100001.62;1673325;82;25716;-64
2021/05/18 13:34:15;;;;;;;7.97;0.70;;;;;;;18.85;50.31;100004.30;1676222;82;25647;-64
2021/05/18 13:36:47;;;;;;;9.93;0.95;;;;;;;18.77;49.04;100008.19;1702672;82;25725;-65
2021/05/18 13:39:20;;;;;;;15.53;1.60;;;;;;;18.60;49.07;100027.77;1678559;83;25784;-64
2021/05/18 13:41:49;;;;;;;46.13;3.80;;;;;;;18.06;48.69;100039.16;1678851;83;26430;-65
2021/05/18 13:44:18;;;;;;;65.90;3.15;;;;;;;17.36;49.51;100031.39;1695326;82;25690;-64
2021/05/18 13:46:47;;;;;;;12.03;1.10;;;;;;;16.84;50.69;100050.45;1684102;82;25717;-64
2021/05/18 13:49:16;;;;;;;7.30;0.70;;;;;;;16.29;51.39;100050.27;1689020;83;25770;-65
2021/05/18 13:51:45;;;;;;;24.92;2.65;;;;;;;15.85;52.49;100064.80;1686343;83;25802;-66
2021/05/18 13:54:14;;;;;;;5.58;0.80;;;;;;;15.51;53.36;100070.48;1658278;84;25821;-65
2021/05/18 13:56:46;;;;;;;42.38;3.37;;;;;;;15.17;54.47;100054.50;1696246;82;26341;-65
2021/05/18 13:59:16;;;;;;;8.50;1.27;;;;;;;14.94;55.13;100042.64;1697488;82;25833;-65
2021/05/18 14:01:46;;;;;;;9.27;1.30;;;;;;;14.83;55.73;100057.86;1697397;82;25798;-65
2021/05/18 14:04:15;;;;;;;2.75;1.00;;;;;;;14.78;56.45;100063.58;1662177;83;25920;-65
2021/05/18 14:07:38;;;;;;;10.28;1.20;;;;;;;14.75;56.80;100058.88;1688737;82;25804;-65
2021/05/18 14:09:48;;;;;;;6.20;1.15;;;;;;;14.77;57.54;100067.25;1626785;85;25845;-65
2021/05/18 14:12:17;;;;;;;8.15;1.20;;;;;;;14.82;58.17;100072.32;1654084;83;25719;-65
2021/05/18 14:14:45;;;;;;;6.78;1.12;;;;;;;14.85;58.13;100061.31;1658073;84;25781;-65
2021/05/18 14:17:16;;;;;;;1.75;1.35;;;;;;;14.92;58.13;100073.41;1657282;83;25701;-65
2021/05/18 14:19:43;;;;;;;5.40;1.62;;;;;;;15.01;58.28;100060.61;1650633;84;25744;-65
2021/05/18 14:22:13;;;;;;;7.97;1.15;;;;;;;15.07;58.43;100068.76;1676407;82;25814;-65
2021/05/18 14:24:54;;;;;;;5.47;1.20;;;;;;;15.16;58.42;100059.52;1659153;84;25839;-65
2021/05/18 14:27:21;;;;;;;25.00;2.00;;;;;;;15.32;58.16;100059.28;1652190;82;25646;-65
2021/05/18 14:29:52;;;;;;;6.80;1.27;;;;;;;15.25;57.41;100071.01;1653209;84;26034;-65
2021/05/18 14:32:22;;;;;;;5.85;1.22;;;;;;;15.07;57.64;100060.66;1669564;83;27380;-66
2021/05/18 14:34:52;;;;;;;2.12;0.80;;;;;;;15.04;57.48;100059.05;1679057;83;25797;-66
2021/05/18 14:37:23;;;;;;;1.25;0.70;;;;;;;15.11;57.51;100063.03;1656476;83;25681;-66
2021/05/18 14:40:21;;;;;;;2.47;0.90;;;;;;;15.15;57.46;100060.98;1697510;82;25643;-66
2021/05/18 14:45:34;;;;;;;4.22;1.00;;;;;;;15.25;57.71;100056.16;1667733;82;25865;-66
2021/05/18 14:48:18;;;;;;;3.52;1.72;;;;;;;15.36;57.67;100055.38;1713185;81;25684;-65
2021/05/18 14:56:12;;;;;;;8.70;2.25;;;;;;;15.43;57.60;100053.97;1687741;81;26061;-65
2021/05/18 14:58:40;;;;;;;2.58;1.07;;;;;;;15.25;58.03;100052.11;1702854;81;26226;-65
2021/05/18 15:01:10;;;;;;;3.05;1.30;;;;;;;15.22;58.26;100063.62;1678102;82;25655;-65
2021/05/18 15:03:39;;;;;;;3.22;1.10;;;;;;;15.22;58.34;100052.33;1696052;83;25814;-65
2021/05/18 15:06:11;;;;;;;3.25;0.95;;;;;;;15.16;58.64;100059.52;1700272;81;25705;-65
2021/05/18 15:08:40;;;;;;;7.47;1.02;;;;;;;15.19;58.85;100047.64;1726990;81;25852;-65
2021/05/18 15:11:11;;;;;;;7.58;1.52;;;;;;;15.21;58.90;100051.95;1723824;80;25661;-65
2021/05/18 15:13:42;;;;;;;1.67;1.40;;;;;;;15.20;59.02;100050.23;1731874;81;25600;-65
2021/05/18 15:16:11;;;;;;;5.10;1.47;;;;;;;15.25;58.98;100053.45;1729164;80;25583;-65
2021/05/18 15:18:41;;;;;;;1.82;1.17;;;;;;;15.25;59.11;100060.70;1732338;80;25677;-65
2021/05/18 15:21:10;;;;;;;1.25;1.10;;;;;;;15.23;59.14;100058.11;1647313;84;25718;-66
2021/05/18 15:23:40;;;;;;;14.68;1.98;;;;;;;15.26;59.27;100059.23;1672825;83;25711;-65
2021/05/18 15:26:11;;;;;;;4.97;1.12;;;;;;;15.28;59.37;100059.61;1650606;84;25786;-65
2021/05/18 15:28:43;;;;;;;5.72;1.62;;;;;;;15.32;59.56;100062.47;1669328;83;25717;-65
2021/05/18 15:31:15;;;;;;;2.35;1.20;;;;;;;15.32;59.59;100056.58;1693392;82;25630;-65
2021/05/18 15:33:44;;;;;;;3.77;0.90;;;;;;;15.36;59.48;100068.89;1675458;84;25897;-66
2021/05/18 15:36:16;;;;;;;1.52;0.60;;;;;;;15.48;59.20;100069.83;1701207;82;25898;-67
2021/05/18 15:38:47;;;;;;;2.35;0.70;;;;;;;15.46;58.34;100065.03;1668464;84;25863;-68
2021/05/18 15:41:17;;;;;;;4.62;1.02;;;;;;;15.34;58.02;100075.38;1693966;82;25731;-68
2021/05/18 15:43:47;;;;;;;1.42;0.90;;;;;;;15.26;57.88;100083.53;1698933;82;25600;-67
2021/05/18 15:46:16;;;;;;;1.52;1.12;;;;;;;15.19;57.73;100089.00;1675193;82;25680;-67
2021/05/18 15:48:45;;;;;;;2.42;0.90;;;;;;;15.17;57.56;100075.23;1686794;82;27990;-65
2021/05/18 15:51:16;;;;;;;1.77;0.90;;;;;;;15.17;57.50;100084.19;1678773;83;25758;-65
2021/05/18 15:53:46;;;;;;;2.10;1.30;;;;;;;15.12;57.54;100080.95;1705375;82;25886;-66
2021/05/18 15:56:14;;;;;;;6.37;1.60;;;;;;;15.15;57.53;100081.22;1703713;82;25820;-66
2021/05/18 15:58:45;;;;;;;0.82;0.78;;;;;;;15.16;57.60;100073.02;1703710;82;25726;-66
2021/05/18 16:01:17;;;;;;;2.55;0.75;;;;;;;15.13;57.51;100082.69;1702176;82;27247;-66
2021/05/18 16:03:46;;;;;;;4.62;1.20;;;;;;;15.07;57.62;100089.00;1681325;82;25734;-67
2021/05/18 16:06:17;;;;;;;1.17;0.90;;;;;;;15.04;57.90;100086.52;1680926;83;25671;-67
2021/05/18 16:11:17;;;;;;;1.47;0.98;;;;;;;15.09;58.11;100087.92;1680500;83;25468;-66
2021/05/18 16:13:48;;;;;;;6.30;1.42;;;;;;;15.13;58.11;100085.87;1697524;83;27525;-66
2021/05/18 16:16:20;;;;;;;6.03;1.15;;;;;;;15.11;58.01;100083.28;1679490;83;26483;-66
2021/05/18 16:18:50;;;;;;;4.35;1.00;;;;;;;15.02;58.08;100086.62;1677529;83;26120;-66
2021/05/18 16:21:21;;;;;;;2.30;1.02;;;;;;;15.01;58.16;100084.03;1695687;82;25963;-65
2021/05/18 16:23:55;;;;;;;3.10;1.50;;;;;;;14.93;58.29;100084.09;1673256;83;25599;-67